sensor_id;sensor_type;location;lat;lon;timestamp;pressure;altitude;pressure_sealevel;temperature;humidity
63554;BME280;49699;48.072;7.800;2023-02-21T00:00:54;100066.16;;;2.68;78.19
63554;BME280;49699;48.072;7.800;2023-02-21T00:03:37;100065.34;;;2.63;78.44
63554;BME280;49699;48.072;7.800;2023-02-21T00:06:21;100065.38;;;2.62;78.44
63554;BME280;49699;48.072;7.800;2023-02-21T00:09:05;100063.72;;;2.58;78.68
63554;BME280;49699;48.072;7.800;2023-02-21T00:11:49;100066.34;;;2.53;78.97
63554;BME280;49699;48.072;7.800;2023-02-21T00:14:33;100057.06;;;2.46;79.03
63554;BME280;49699;48.072;7.800;2023-02-21T00:17:19;100057.94;;;2.43;79.24
63554;BME280;49699;48.072;7.800;2023-02-21T00:20:03;100051.16;;;2.39;78.90
63554;BME280;49699;48.072;7.800;2023-02-21T00:22:46;100044.38;;;2.34;79.05
63554;BME280;49699;48.072;7.800;2023-02-21T00:25:30;100038.44;;;2.32;79.06
63554;BME280;49699;48.072;7.800;2023-02-21T00:28:14;100046.13;;;2.32;79.02
63554;BME280;49699;48.072;7.800;2023-02-21T00:30:58;100043.56;;;2.32;79.20
63554;BME280;49699;48.072;7.800;2023-02-21T00:33:42;100040.19;;;2.30;79.14
63554;BME280;49699;48.072;7.800;2023-02-21T00:36:26;100032.50;;;2.27;78.98
63554;BME280;49699;48.072;7.800;2023-02-21T00:39:10;100030.84;;;2.23;79.26
63554;BME280;49699;48.072;7.800;2023-02-21T00:41:54;100031.72;;;2.20;79.43
63554;BME280;49699;48.072;7.800;2023-02-21T00:44:38;100032.63;;;2.18;79.40
63554;BME280;49699;48.072;7.800;2023-02-21T00:47:22;100025.84;;;2.14;79.47
63554;BME280;49699;48.072;7.800;2023-02-21T00:50:06;100016.47;;;2.11;79.32
63554;BME280;49699;48.072;7.800;2023-02-21T00:52:50;100018.19;;;2.11;79.81
63554;BME280;49699;48.072;7.800;2023-02-21T00:55:33;100022.47;;;2.10;79.40
63554;BME280;49699;48.072;7.800;2023-02-21T00:58:20;100025.06;;;2.08;79.60
63554;BME280;49699;48.072;7.800;2023-02-21T01:01:04;100015.66;;;2.07;79.46
63554;BME280;49699;48.072;7.800;2023-02-21T01:03:47;100011.41;;;2.05;79.69
63554;BME280;49699;48.072;7.800;2023-02-21T01:06:31;100011.44;;;2.03;79.61
63554;BME280;49699;48.072;7.800;2023-02-21T01:09:15;100021.75;;;2.00;79.70
63554;BME280;49699;48.072;7.800;2023-02-21T01:11:59;100010.72;;;1.95;79.76
63554;BME280;49699;48.072;7.800;2023-02-21T01:14:43;100012.44;;;1.93;79.90
63554;BME280;49699;48.072;7.800;2023-02-21T01:17:27;100003.94;;;1.90;79.90
63554;BME280;49699;48.072;7.800;2023-02-21T01:20:11;100008.25;;;1.86;80.01
63554;BME280;49699;48.072;7.800;2023-02-21T01:22:56;100007.44;;;1.83;79.91
63554;BME280;49699;48.072;7.800;2023-02-21T01:25:40;100009.16;;;1.81;80.23
63554;BME280;49699;48.072;7.800;2023-02-21T01:28:27;100001.53;;;1.78;80.12
63554;BME280;49699;48.072;7.800;2023-02-21T01:31:15;100003.25;;;1.76;80.41
63554;BME280;49699;48.072;7.800;2023-02-21T01:33:59;100009.28;;;1.73;80.30
63554;BME280;49699;48.072;7.800;2023-02-21T01:36:43;100006.75;;;1.68;80.26
63554;BME280;49699;48.072;7.800;2023-02-21T01:39:27;100001.69;;;1.64;80.62
63554;BME280;49699;48.072;7.800;2023-02-21T01:42:10;99993.22;;;1.59;80.50
63554;BME280;49699;48.072;7.800;2023-02-21T01:47:57;99988.97;;;1.56;80.73
63554;BME280;49699;48.072;7.800;2023-02-21T01:50:41;99984.72;;;1.52;80.95
63554;BME280;49699;48.072;7.800;2023-02-21T01:53:25;99986.47;;;1.49;80.69
63554;BME280;49699;48.072;7.800;2023-02-21T01:56:09;99980.53;;;1.47;80.73
63554;BME280;49699;48.072;7.800;2023-02-21T01:58:56;99977.94;;;1.47;80.73
63554;BME280;49699;48.072;7.800;2023-02-21T02:01:44;99976.25;;;1.47;80.68
63554;BME280;49699;48.072;7.800;2023-02-21T02:04:30;99975.38;;;1.48;80.53
63554;BME280;49699;48.072;7.800;2023-02-21T02:07:15;99975.41;;;1.45;80.59
63554;BME280;49699;48.072;7.800;2023-02-21T02:09:58;99975.47;;;1.42;80.72
63554;BME280;49699;48.072;7.800;2023-02-21T02:15:23;99963.53;;;1.39;80.80
63554;BME280;49699;48.072;7.800;2023-02-21T02:28:16;99960.16;;;1.33;80.81
63554;BME280;49699;48.072;7.800;2023-02-21T02:30:53;99955.94;;;1.30;80.83
63554;BME280;49699;48.072;7.800;2023-02-21T02:33:29;99957.66;;;1.28;80.99
63554;BME280;49699;48.072;7.800;2023-02-21T02:36:16;99948.25;;;1.27;80.83
63554;BME280;49699;48.072;7.800;2023-02-21T02:41:51;99956.81;;;1.26;80.92
63554;BME280;49699;48.072;7.800;2023-02-21T02:44:20;99956.78;;;1.29;80.89
63554;BME280;49699;48.072;7.800;2023-02-21T02:46:48;99959.31;;;1.34;80.71
63554;BME280;49699;48.072;7.800;2023-02-21T02:49:18;99954.16;;;1.37;80.58
63554;BME280;49699;48.072;7.800;2023-02-21T02:51:46;99959.25;;;1.40;80.50
63554;BME280;49699;48.072;7.800;2023-02-21T02:54:11;99947.28;;;1.41;80.40
63554;BME280;49699;48.072;7.800;2023-02-21T02:56:37;99949.00;;;1.38;80.43
63554;BME280;49699;48.072;7.800;2023-02-21T02:59:10;99943.88;;;1.38;80.62
63554;BME280;49699;48.072;7.800;2023-02-21T03:01:40;99945.59;;;1.38;80.57
63554;BME280;49699;48.072;7.800;2023-02-21T03:07:00;99944.75;;;1.37;80.67
63554;BME280;49699;48.072;7.800;2023-02-21T03:09:30;99936.19;;;1.37;80.84
63554;BME280;49699;48.072;7.800;2023-02-21T03:12:00;99929.38;;;1.34;80.96
63554;BME280;49699;48.072;7.800;2023-02-21T03:14:34;99937.06;;;1.34;80.75
63554;BME280;49699;48.072;7.800;2023-02-21T03:17:03;99943.06;;;1.33;80.99
63554;BME280;49699;48.072;7.800;2023-02-21T03:19:35;99939.66;;;1.34;80.67
63554;BME280;49699;48.072;7.800;2023-02-21T03:22:04;99948.19;;;1.35;80.85
63554;BME280;49699;48.072;7.800;2023-02-21T03:24:31;99947.34;;;1.34;80.98
63554;BME280;49699;48.072;7.800;2023-02-21T03:27:02;99947.41;;;1.28;80.79
63554;BME280;49699;48.072;7.800;2023-02-21T03:29:44;99942.41;;;1.18;81.03
63554;BME280;49699;48.072;7.800;2023-02-21T03:34:48;99958.75;;;1.08;81.75
63554;BME280;49699;48.072;7.800;2023-02-21T03:37:28;99954.53;;;1.05;81.55
63554;BME280;49699;48.072;7.800;2023-02-21T03:39:54;99956.25;;;1.04;81.56
63554;BME280;49699;48.072;7.800;2023-02-21T03:42:19;99961.38;;;1.03;81.84
63554;BME280;49699;48.072;7.800;2023-02-21T03:44:44;99958.81;;;1.03;81.88
63554;BME280;49699;48.072;7.800;2023-02-21T03:47:10;99955.41;;;1.01;81.63
63554;BME280;49699;48.072;7.800;2023-02-21T03:49:35;99953.72;;;0.98;81.71
63554;BME280;49699;48.072;7.800;2023-02-21T03:52:01;99955.47;;;0.95;81.67
63554;BME280;49699;48.072;7.800;2023-02-21T03:54:26;99952.06;;;0.94;81.82
63554;BME280;49699;48.072;7.800;2023-02-21T03:56:54;99950.34;;;0.93;82.02
63554;BME280;49699;48.072;7.800;2023-02-21T03:59:23;99949.53;;;0.91;82.04
63554;BME280;49699;48.072;7.800;2023-02-21T04:01:48;99946.16;;;0.89;82.05
63554;BME280;49699;48.072;7.800;2023-02-21T04:04:15;99949.56;;;0.88;81.91
63554;BME280;49699;48.072;7.800;2023-02-21T04:06:41;99956.41;;;0.89;82.06
63554;BME280;49699;48.072;7.800;2023-02-21T04:09:06;99953.84;;;0.89;81.94
63554;BME280;49699;48.072;7.800;2023-02-21T04:11:31;99956.34;;;0.91;81.98
63554;BME280;49699;48.072;7.800;2023-02-21T04:13:57;99960.63;;;0.92;81.77
63554;BME280;49699;48.072;7.800;2023-02-21T04:16:22;99961.47;;;0.92;81.84
63554;BME280;49699;48.072;7.800;2023-02-21T04:18:50;99964.91;;;0.91;81.91
63554;BME280;49699;48.072;7.800;2023-02-21T04:21:17;99952.94;;;0.90;81.74
63554;BME280;49699;48.072;7.800;2023-02-21T04:23:43;99963.25;;;0.89;81.82
63554;BME280;49699;48.072;7.800;2023-02-21T04:26:08;99959.00;;;0.86;81.97
63554;BME280;49699;48.072;7.800;2023-02-21T04:28:42;99959.88;;;0.82;81.93
63554;BME280;49699;48.072;7.800;2023-02-21T04:31:07;99955.63;;;0.78;82.10
63554;BME280;49699;48.072;7.800;2023-02-21T04:33:33;99961.63;;;0.76;82.05
63554;BME280;49699;48.072;7.800;2023-02-21T04:35:58;99968.47;;;0.75;82.14
63554;BME280;49699;48.072;7.800;2023-02-21T04:38:35;99968.47;;;0.74;82.11
63554;BME280;49699;48.072;7.800;2023-02-21T04:41:02;99971.03;;;0.75;82.14
63554;BME280;49699;48.072;7.800;2023-02-21T04:43:28;99969.31;;;0.76;82.05
63554;BME280;49699;48.072;7.800;2023-02-21T04:45:53;99973.56;;;0.78;82.21
63554;BME280;49699;48.072;7.800;2023-02-21T04:48:19;99967.59;;;0.78;82.16
63554;BME280;49699;48.072;7.800;2023-02-21T04:50:44;99964.22;;;0.74;82.07
63554;BME280;49699;48.072;7.800;2023-02-21T04:53:10;99957.44;;;0.72;82.30
63554;BME280;49699;48.072;7.800;2023-02-21T04:55:35;99962.56;;;0.68;82.29
63554;BME280;49699;48.072;7.800;2023-02-21T04:58:00;99962.56;;;0.68;82.27
63554;BME280;49699;48.072;7.800;2023-02-21T05:00:25;99962.56;;;0.72;82.36
63554;BME280;49699;48.072;7.800;2023-02-21T05:02:51;99959.94;;;0.73;82.30
63554;BME280;49699;48.072;7.800;2023-02-21T05:05:16;99946.28;;;0.73;82.23
63554;BME280;49699;48.072;7.800;2023-02-21T05:07:41;99952.31;;;0.70;82.02
63554;BME280;49699;48.072;7.800;2023-02-21T05:10:07;99953.19;;;0.67;82.18
63554;BME280;49699;48.072;7.800;2023-02-21T05:12:33;99953.22;;;0.64;82.34
63554;BME280;49699;48.072;7.800;2023-02-21T05:14:59;99958.38;;;0.61;82.20
63554;BME280;49699;48.072;7.800;2023-02-21T05:17:24;99961.81;;;0.56;82.62
63554;BME280;49699;48.072;7.800;2023-02-21T05:19:49;99955.84;;;0.54;82.75
63554;BME280;49699;48.072;7.800;2023-02-21T05:22:16;99950.78;;;0.49;82.83
63554;BME280;49699;48.072;7.800;2023-02-21T05:24:44;99954.25;;;0.44;82.73
63554;BME280;49699;48.072;7.800;2023-02-21T05:27:10;99952.56;;;0.40;83.03
63554;BME280;49699;48.072;7.800;2023-02-21T05:29:46;99954.34;;;0.34;83.16
63554;BME280;49699;48.072;7.800;2023-02-21T05:32:12;99958.63;;;0.32;83.44
63554;BME280;49699;48.072;7.800;2023-02-21T05:34:37;99959.47;;;0.31;83.24
63554;BME280;49699;48.072;7.800;2023-02-21T05:37:02;99965.44;;;0.32;83.49
63554;BME280;49699;48.072;7.800;2023-02-21T05:39:27;99964.59;;;0.31;83.53
63554;BME280;49699;48.072;7.800;2023-02-21T05:41:53;99960.31;;;0.33;83.22
63554;BME280;49699;48.072;7.800;2023-02-21T05:44:21;99962.88;;;0.33;83.12
63554;BME280;49699;48.072;7.800;2023-02-21T05:46:47;99964.59;;;0.33;83.42
63554;BME280;49699;48.072;7.800;2023-02-21T05:49:12;99956.06;;;0.31;83.23
63554;BME280;49699;48.072;7.800;2023-02-21T05:51:38;99957.78;;;0.30;83.21
63554;BME280;49699;48.072;7.800;2023-02-21T05:54:05;99951.84;;;0.27;83.11
63554;BME280;49699;48.072;7.800;2023-02-21T05:56:35;99962.09;;;0.24;83.46
63554;BME280;49699;48.072;7.800;2023-02-21T05:59:01;99965.50;;;0.23;83.60
63554;BME280;49699;48.072;7.800;2023-02-21T06:01:26;99960.41;;;0.20;83.45
63554;BME280;49699;48.072;7.800;2023-02-21T06:03:52;99957.91;;;0.17;83.59
63554;BME280;49699;48.072;7.800;2023-02-21T06:06:17;99952.78;;;0.14;83.80
63554;BME280;49699;48.072;7.800;2023-02-21T06:08:43;99958.78;;;0.13;83.68
63554;BME280;49699;48.072;7.800;2023-02-21T06:11:09;99957.91;;;0.12;83.66
63554;BME280;49699;48.072;7.800;2023-02-21T06:13:35;99953.63;;;0.14;83.47
63554;BME280;49699;48.072;7.800;2023-02-21T06:16:00;99945.13;;;0.14;83.70
63554;BME280;49699;48.072;7.800;2023-02-21T06:18:25;99946.81;;;0.13;83.55
63554;BME280;49699;48.072;7.800;2023-02-21T06:20:51;99951.06;;;0.16;83.68
63554;BME280;49699;48.072;7.800;2023-02-21T06:23:16;99952.72;;;0.18;83.39
63554;BME280;49699;48.072;7.800;2023-02-21T06:25:41;99947.63;;;0.18;83.45
63554;BME280;49699;48.072;7.800;2023-02-21T06:28:06;99943.34;;;0.19;83.42
63554;BME280;49699;48.072;7.800;2023-02-21T06:30:33;99949.31;;;0.19;83.51
63554;BME280;49699;48.072;7.800;2023-02-21T06:32:58;99947.59;;;0.21;83.15
63554;BME280;49699;48.072;7.800;2023-02-21T06:35:23;99945.03;;;0.20;83.15
63554;BME280;49699;48.072;7.800;2023-02-21T06:37:48;99949.38;;;0.16;83.45
63554;BME280;49699;48.072;7.800;2023-02-21T06:40:14;99956.19;;;0.14;83.32
63554;BME280;49699;48.072;7.800;2023-02-21T06:42:39;99953.63;;;0.14;83.34
63554;BME280;49699;48.072;7.800;2023-02-21T06:45:04;99958.75;;;0.16;83.47
63554;BME280;49699;48.072;7.800;2023-02-21T06:47:30;99961.31;;;0.16;83.44
63554;BME280;49699;48.072;7.800;2023-02-21T06:49:55;99966.38;;;0.19;83.58
63554;BME280;49699;48.072;7.800;2023-02-21T06:52:21;99957.84;;;0.21;83.27
63554;BME280;49699;48.072;7.800;2023-02-21T06:54:48;99974.03;;;0.23;83.22
63554;BME280;49699;48.072;7.800;2023-02-21T06:57:14;99972.34;;;0.21;83.24
63554;BME280;49699;48.072;7.800;2023-02-21T06:59:39;99967.22;;;0.19;83.25
63554;BME280;49699;48.072;7.800;2023-02-21T07:02:05;99968.94;;;0.20;83.18
63554;BME280;49699;48.072;7.800;2023-02-21T07:04:31;99974.88;;;0.25;83.07
63554;BME280;49699;48.072;7.800;2023-02-21T07:06:56;99972.28;;;0.31;83.01
63554;BME280;49699;48.072;7.800;2023-02-21T07:09:21;99964.53;;;0.38;82.84
63554;BME280;49699;48.072;7.800;2023-02-21T07:11:46;99961.09;;;0.42;82.62
63554;BME280;49699;48.072;7.800;2023-02-21T07:14:12;99965.31;;;0.47;82.65
63554;BME280;49699;48.072;7.800;2023-02-21T07:16:37;99969.56;;;0.53;82.21
63554;BME280;49699;48.072;7.800;2023-02-21T07:19:02;99969.47;;;0.62;82.06
63554;BME280;49699;48.072;7.800;2023-02-21T07:21:28;99960.03;;;0.67;81.99
63554;BME280;49699;48.072;7.800;2023-02-21T07:23:53;99973.59;;;0.74;81.67
63554;BME280;49699;48.072;7.800;2023-02-21T07:26:18;99964.16;;;0.80;81.58
63554;BME280;49699;48.072;7.800;2023-02-21T07:28:46;99968.31;;;0.92;81.36
63554;BME280;49699;48.072;7.800;2023-02-21T07:31:11;99972.50;;;1.02;80.96
63554;BME280;49699;48.072;7.800;2023-02-21T07:33:37;99965.53;;;1.12;80.76
63554;BME280;49699;48.072;7.800;2023-02-21T07:36:02;99973.13;;;1.24;80.57
63554;BME280;49699;48.072;7.800;2023-02-21T07:38:28;99978.94;;;1.36;79.91
63554;BME280;49699;48.072;7.800;2023-02-21T07:40:54;99969.38;;;1.48;79.62
63554;BME280;49699;48.072;7.800;2023-02-21T07:43:20;99981.13;;;1.65;79.16
63554;BME280;49699;48.072;7.800;2023-02-21T07:45:45;99974.03;;;1.84;78.78
63554;BME280;49699;48.072;7.800;2023-02-21T07:48:10;99981.47;;;2.04;78.22
63554;BME280;49699;48.072;7.800;2023-02-21T07:50:39;99972.59;;;2.25;77.70
63554;BME280;49699;48.072;7.800;2023-02-21T07:53:04;99974.03;;;2.44;77.01
63554;BME280;49699;48.072;7.800;2023-02-21T07:55:29;99976.22;;;2.67;76.84
63554;BME280;49699;48.072;7.800;2023-02-21T07:57:54;99977.50;;;2.91;76.33
63554;BME280;49699;48.072;7.800;2023-02-21T08:00:20;99977.94;;;3.14;75.83
63554;BME280;49699;48.072;7.800;2023-02-21T08:02:49;99970.59;;;3.39;74.88
63554;BME280;49699;48.072;7.800;2023-02-21T08:05:15;99976.91;;;3.64;74.27
63554;BME280;49699;48.072;7.800;2023-02-21T08:07:40;99968.66;;;3.90;73.38
63554;BME280;49699;48.072;7.800;2023-02-21T08:10:06;99972.31;;;4.17;72.71
63554;BME280;49699;48.072;7.800;2023-02-21T08:12:31;99958.81;;;4.44;71.88
63554;BME280;49699;48.072;7.800;2023-02-21T08:14:57;99964.13;;;4.71;71.74
63554;BME280;49699;48.072;7.800;2023-02-21T08:17:22;99960.09;;;4.95;70.76
63554;BME280;49699;48.072;7.800;2023-02-21T08:19:47;99953.38;;;5.20;69.89
63554;BME280;49699;48.072;7.800;2023-02-21T08:22:12;99963.81;;;5.46;69.49
63554;BME280;49699;48.072;7.800;2023-02-21T08:24:38;99958.91;;;5.68;69.10
63554;BME280;49699;48.072;7.800;2023-02-21T08:27:03;99960.84;;;5.91;68.63
63554;BME280;49699;48.072;7.800;2023-02-21T08:29:28;99956.63;;;6.15;67.84
63554;BME280;49699;48.072;7.800;2023-02-21T08:31:54;99953.38;;;6.36;67.36
63554;BME280;49699;48.072;7.800;2023-02-21T08:34:19;99950.84;;;6.61;66.67
63554;BME280;49699;48.072;7.800;2023-02-21T08:36:44;99949.31;;;6.80;66.31
63554;BME280;49699;48.072;7.800;2023-02-21T08:39:09;99946.81;;;7.02;65.69
63554;BME280;49699;48.072;7.800;2023-02-21T08:44:00;99943.59;;;7.44;64.72
63554;BME280;49699;48.072;7.800;2023-02-21T08:46:26;99942.09;;;7.61;64.15
63554;BME280;49699;48.072;7.800;2023-02-21T08:48:51;99945.66;;;7.81;63.66
63554;BME280;49699;48.072;7.800;2023-02-21T08:51:16;99937.19;;;7.99;63.05
63554;BME280;49699;48.072;7.800;2023-02-21T08:53:42;99944.28;;;8.16;62.83
63554;BME280;49699;48.072;7.800;2023-02-21T08:56:07;99944.38;;;8.36;62.66
63554;BME280;49699;48.072;7.800;2023-02-21T08:58:32;99931.88;;;8.46;62.46
63554;BME280;49699;48.072;7.800;2023-02-21T09:00:57;99934.47;;;8.46;62.81
63554;BME280;49699;48.072;7.800;2023-02-21T09:03:23;99927.34;;;8.51;62.95
63554;BME280;49699;48.072;7.800;2023-02-21T09:05:48;99924.03;;;8.67;62.28
63554;BME280;49699;48.072;7.800;2023-02-21T09:08:13;99918.84;;;8.88;61.91
63554;BME280;49699;48.072;7.800;2023-02-21T09:10:40;99925.06;;;9.04;61.92
63554;BME280;49699;48.072;7.800;2023-02-21T09:13:11;99916.47;;;9.22;61.28
63554;BME280;49699;48.072;7.800;2023-02-21T09:15:36;99910.53;;;9.39;60.59
63554;BME280;49699;48.072;7.800;2023-02-21T09:18:01;99901.03;;;9.57;60.57
63554;BME280;49699;48.072;7.800;2023-02-21T09:20:27;99907.00;;;9.78;59.96
63554;BME280;49699;48.072;7.800;2023-02-21T09:22:52;99903.47;;;9.97;59.12
63554;BME280;49699;48.072;7.800;2023-02-21T09:25:18;99896.53;;;10.15;58.47
63554;BME280;49699;48.072;7.800;2023-02-21T09:27:44;99894.13;;;10.29;57.97
63554;BME280;49699;48.072;7.800;2023-02-21T09:30:11;99892.25;;;10.50;57.82
63554;BME280;49699;48.072;7.800;2023-02-21T09:32:37;99884.78;;;10.77;56.98
63554;BME280;49699;48.072;7.800;2023-02-21T09:35:02;99884.22;;;11.05;56.51
63554;BME280;49699;48.072;7.800;2023-02-21T09:37:28;99884.16;;;11.22;55.74
63554;BME280;49699;48.072;7.800;2023-02-21T09:39:53;99884.09;;;11.39;55.32
63554;BME280;49699;48.072;7.800;2023-02-21T09:42:27;99878.97;;;11.54;54.98
63554;BME280;49699;48.072;7.800;2023-02-21T09:44:53;99875.69;;;11.66;54.36
63554;BME280;49699;48.072;7.800;2023-02-21T09:47:23;99877.41;;;11.82;54.17
63554;BME280;49699;48.072;7.800;2023-02-21T09:49:51;99876.47;;;11.99;53.82
63554;BME280;49699;48.072;7.800;2023-02-21T09:57:55;99849.31;;;12.47;52.54
63554;BME280;49699;48.072;7.800;2023-02-21T10:00:22;99852.78;;;12.62;52.24
63554;BME280;49699;48.072;7.800;2023-02-21T10:08:42;99851.00;;;13.21;51.00
63554;BME280;49699;48.072;7.800;2023-02-21T10:16:46;99848.50;;;13.61;50.13
63554;BME280;49699;48.072;7.800;2023-02-21T10:21:42;99840.34;;;13.92;49.40
63554;BME280;49699;48.072;7.800;2023-02-21T10:24:13;99838.47;;;13.94;49.41
63554;BME280;49699;48.072;7.800;2023-02-21T10:26:39;99838.16;;;13.99;49.38
63554;BME280;49699;48.072;7.800;2023-02-21T10:29:16;99836.00;;;14.05;49.32
63554;BME280;49699;48.072;7.800;2023-02-21T10:31:44;99833.09;;;14.10;49.12
63554;BME280;49699;48.072;7.800;2023-02-21T10:34:17;99831.31;;;14.10;49.02
63554;BME280;49699;48.072;7.800;2023-02-21T10:36:44;99829.09;;;14.17;48.79
63554;BME280;49699;48.072;7.800;2023-02-21T10:39:11;99834.78;;;14.23;48.51
63554;BME280;49699;48.072;7.800;2023-02-21T10:41:39;99827.69;;;14.38;48.49
63554;BME280;49699;48.072;7.800;2023-02-21T10:47:17;99822.50;;;14.76;47.70
63554;BME280;49699;48.072;7.800;2023-02-21T10:49:49;99820.19;;;14.84;47.38
63554;BME280;49699;48.072;7.800;2023-02-21T10:52:17;99814.50;;;14.90;47.36
63554;BME280;49699;48.072;7.800;2023-02-21T10:54:59;99814.50;;;14.90;47.11
63554;BME280;49699;48.072;7.800;2023-02-21T10:57:24;99808.09;;;15.07;47.13
63554;BME280;49699;48.072;7.800;2023-02-21T10:59:50;99811.44;;;15.22;46.63
63554;BME280;49699;48.072;7.800;2023-02-21T11:02:33;99804.16;;;15.38;46.36
63554;BME280;49699;48.072;7.800;2023-02-21T11:05:06;99803.28;;;15.50;45.53
63554;BME280;49699;48.072;7.800;2023-02-21T11:07:32;99799.91;;;15.61;45.44
63554;BME280;49699;48.072;7.800;2023-02-21T11:09:58;99789.91;;;15.66;44.78
63554;BME280;49699;48.072;7.800;2023-02-21T11:12:25;99783.81;;;15.66;44.61
63554;BME280;49699;48.072;7.800;2023-02-21T11:19:46;99751.00;;;15.60;43.94
63554;BME280;49699;48.072;7.800;2023-02-21T11:22:13;99754.13;;;15.65;43.70
63554;BME280;49699;48.072;7.800;2023-02-21T11:27:10;99749.19;;;15.84;43.29
63554;BME280;49699;48.072;7.800;2023-02-21T11:29:36;99743.63;;;15.89;42.50
63554;BME280;49699;48.072;7.800;2023-02-21T11:32:10;99746.84;;;15.92;42.67
63554;BME280;49699;48.072;7.800;2023-02-21T11:34:37;99737.66;;;15.98;42.09
63554;BME280;49699;48.072;7.800;2023-02-21T11:37:02;99731.41;;;16.12;42.15
63554;BME280;49699;48.072;7.800;2023-02-21T11:39:31;99735.81;;;16.22;41.60
63554;BME280;49699;48.072;7.800;2023-02-21T11:42:01;99720.75;;;16.13;41.46
63554;BME280;49699;48.072;7.800;2023-02-21T11:44:32;99724.31;;;16.12;41.12
63554;BME280;49699;48.072;7.800;2023-02-21T11:47:13;99718.00;;;16.15;41.27
63554;BME280;49699;48.072;7.800;2023-02-21T11:50:00;99712.69;;;16.27;40.88
63554;BME280;49699;48.072;7.800;2023-02-21T11:52:31;99704.91;;;16.37;40.65
63554;BME280;49699;48.072;7.800;2023-02-21T11:54:58;99702.41;;;16.58;40.44
63554;BME280;49699;48.072;7.800;2023-02-21T11:57:26;99695.03;;;16.74;40.20
63554;BME280;49699;48.072;7.800;2023-02-21T12:02:36;99678.88;;;16.90;39.71
63554;BME280;49699;48.072;7.800;2023-02-21T12:05:17;99669.31;;;17.00;39.53
63554;BME280;49699;48.072;7.800;2023-02-21T12:07:53;99665.44;;;17.04;39.35
63554;BME280;49699;48.072;7.800;2023-02-21T12:10:39;99658.53;;;17.03;39.39
63554;BME280;49699;48.072;7.800;2023-02-21T12:15:46;99646.91;;;17.06;39.16
63554;BME280;49699;48.072;7.800;2023-02-21T12:26:25;99630.38;;;17.47;38.80
63554;BME280;49699;48.072;7.800;2023-02-21T12:29:08;99620.63;;;17.38;38.20
63554;BME280;49699;48.072;7.800;2023-02-21T12:31:53;99617.22;;;17.26;38.36
63554;BME280;49699;48.072;7.800;2023-02-21T12:39:36;99600.41;;;17.17;38.44
63554;BME280;49699;48.072;7.800;2023-02-21T12:47:25;99593.06;;;17.21;38.02
63554;BME280;49699;48.072;7.800;2023-02-21T12:52:20;99581.16;;;17.17;37.79
63554;BME280;49699;48.072;7.800;2023-02-21T12:54:49;99580.94;;;17.09;37.50
63554;BME280;49699;48.072;7.800;2023-02-21T12:57:21;99565.94;;;16.99;37.82
63554;BME280;49699;48.072;7.800;2023-02-21T13:05:07;99554.94;;;16.94;38.32
63554;BME280;49699;48.072;7.800;2023-02-21T13:07:40;99555.19;;;16.91;38.41
63554;BME280;49699;48.072;7.800;2023-02-21T13:15:32;99538.81;;;16.99;38.04
63554;BME280;49699;48.072;7.800;2023-02-21T13:18:09;99536.72;;;17.02;38.04
63554;BME280;49699;48.072;7.800;2023-02-21T13:20:51;99531.94;;;17.08;37.64
63554;BME280;49699;48.072;7.800;2023-02-21T13:23:17;99525.59;;;17.10;37.66
63554;BME280;49699;48.072;7.800;2023-02-21T13:28:21;99510.16;;;17.17;37.44
63554;BME280;49699;48.072;7.800;2023-02-21T13:30:52;99511.22;;;17.14;37.25
63554;BME280;49699;48.072;7.800;2023-02-21T13:33:37;99511.34;;;17.13;37.32
63554;BME280;49699;48.072;7.800;2023-02-21T13:36:29;99503.66;;;17.21;37.19
63554;BME280;49699;48.072;7.800;2023-02-21T13:41:38;99495.69;;;17.32;36.62
63554;BME280;49699;48.072;7.800;2023-02-21T13:49:36;99484.72;;;17.27;35.76
63554;BME280;49699;48.072;7.800;2023-02-21T13:57:35;99473.03;;;17.41;34.15
63554;BME280;49699;48.072;7.800;2023-02-21T14:02:55;99461.53;;;17.42;33.13
63554;BME280;49699;48.072;7.800;2023-02-21T14:05:21;99459.75;;;17.42;32.87
63554;BME280;49699;48.072;7.800;2023-02-21T14:07:49;99459.50;;;17.45;32.53
63554;BME280;49699;48.072;7.800;2023-02-21T14:10:22;99445.25;;;17.48;32.36
63554;BME280;49699;48.072;7.800;2023-02-21T14:13:16;99448.19;;;17.54;32.30
63554;BME280;49699;48.072;7.800;2023-02-21T14:15:37;99448.59;;;17.59;32.17
63554;BME280;49699;48.072;7.800;2023-02-21T14:18:04;99443.00;;;17.64;32.01
63554;BME280;49699;48.072;7.800;2023-02-21T14:20:30;99444.03;;;17.61;31.22
63554;BME280;49699;48.072;7.800;2023-02-21T14:22:56;99437.81;;;17.62;30.84
63554;BME280;49699;48.072;7.800;2023-02-21T14:25:23;99437.81;;;17.62;30.23
63554;BME280;49699;48.072;7.800;2023-02-21T14:27:49;99432.81;;;17.59;30.16
63554;BME280;49699;48.072;7.800;2023-02-21T14:33:20;99431.16;;;17.58;29.87
63554;BME280;49699;48.072;7.800;2023-02-21T14:35:57;99427.97;;;17.55;30.06
63554;BME280;49699;48.072;7.800;2023-02-21T14:38:24;99428.09;;;17.53;30.22
63554;BME280;49699;48.072;7.800;2023-02-21T14:40:57;99422.72;;;17.55;30.34
63554;BME280;49699;48.072;7.800;2023-02-21T14:43:33;99423.81;;;17.52;30.04
63554;BME280;49699;48.072;7.800;2023-02-21T14:46:09;99422.22;;;17.40;29.95
63554;BME280;49699;48.072;7.800;2023-02-21T14:56:39;99400.44;;;17.28;29.75
63554;BME280;49699;48.072;7.800;2023-02-21T15:02:26;99405.72;;;17.38;29.71
63554;BME280;49699;48.072;7.800;2023-02-21T15:04:57;99394.41;;;17.38;29.41
63554;BME280;49699;48.072;7.800;2023-02-21T15:07:30;99381.50;;;17.34;29.28
63554;BME280;49699;48.072;7.800;2023-02-21T15:10:10;99388.69;;;17.32;29.31
63554;BME280;49699;48.072;7.800;2023-02-21T15:12:39;99390.88;;;17.27;29.43
63554;BME280;49699;48.072;7.800;2023-02-21T15:15:05;99397.19;;;17.15;29.72
63554;BME280;49699;48.072;7.800;2023-02-21T15:17:30;99394.91;;;17.01;30.04
63554;BME280;49699;48.072;7.800;2023-02-21T15:20:29;99393.81;;;16.83;30.39
63554;BME280;49699;48.072;7.800;2023-02-21T15:22:54;99391.06;;;16.63;30.63
63554;BME280;49699;48.072;7.800;2023-02-21T15:25:20;99384.03;;;16.53;30.93
63554;BME280;49699;48.072;7.800;2023-02-21T15:30:15;99381.38;;;16.32;31.42
63554;BME280;49699;48.072;7.800;2023-02-21T15:32:41;99391.94;;;16.21;31.83